sensor_id;sensor_type;location;lat;lon;timestamp;pressure;altitude;pressure_sealevel;temperature;humidity
75627;BME280;67372;49.404;11.034;2023-02-24T00:02:03;97690.44;;;8.83;79.08
75627;BME280;67372;49.404;11.034;2023-02-24T00:04:35;97691.47;;;8.82;79.38
75627;BME280;67372;49.404;11.034;2023-02-24T00:07:02;97689.47;;;8.77;79.32
75627;BME280;67372;49.404;11.034;2023-02-24T00:09:29;97698.66;;;8.75;79.02
75627;BME280;67372;49.404;11.034;2023-02-24T00:12:00;97693.56;;;8.73;79.62
75627;BME280;67372;49.404;11.034;2023-02-24T00:14:29;97688.47;;;8.72;79.40
75627;BME280;67372;49.404;11.034;2023-02-24T00:16:56;97685.03;;;8.65;79.65
75627;BME280;67372;49.404;11.034;2023-02-24T00:19:25;97679.78;;;8.58;80.07
75627;BME280;67372;49.404;11.034;2023-02-24T00:21:52;97678.16;;;8.57;80.53
75627;BME280;67372;49.404;11.034;2023-02-24T00:24:20;97683.91;;;8.54;81.14
75627;BME280;67372;49.404;11.034;2023-02-24T00:26:51;97678.81;;;8.52;80.91
75627;BME280;67372;49.404;11.034;2023-02-24T00:29:18;97681.06;;;8.49;81.27
75627;BME280;67372;49.404;11.034;2023-02-24T00:31:44;97677.66;;;8.42;82.09
75627;BME280;67372;49.404;11.034;2023-02-24T00:34:10;97668.28;;;8.39;81.39
75627;BME280;67372;49.404;11.034;2023-02-24T00:36:37;97667.25;;;8.40;81.24
75627;BME280;67372;49.404;11.034;2023-02-24T00:39:06;97658.44;;;8.40;81.80
75627;BME280;67372;49.404;11.034;2023-02-24T00:41:33;97656.59;;;8.40;81.03
75627;BME280;67372;49.404;11.034;2023-02-24T00:44:02;97661.72;;;8.42;82.00
75627;BME280;67372;49.404;11.034;2023-02-24T00:46:29;97656.16;;;8.43;81.78
75627;BME280;67372;49.404;11.034;2023-02-24T00:48:56;97654.53;;;8.42;81.33
75627;BME280;67372;49.404;11.034;2023-02-24T00:51:24;97647.38;;;8.43;81.43
75627;BME280;67372;49.404;11.034;2023-02-24T00:53:55;97648.34;;;8.48;81.67
75627;BME280;67372;49.404;11.034;2023-02-24T00:56:26;97643.81;;;8.55;81.19
75627;BME280;67372;49.404;11.034;2023-02-24T00:58:54;97644.19;;;8.59;80.93
75627;BME280;67372;49.404;11.034;2023-02-24T01:01:23;97637.63;;;8.61;81.01
75627;BME280;67372;49.404;11.034;2023-02-24T01:03:51;97632.91;;;8.64;80.63
75627;BME280;67372;49.404;11.034;2023-02-24T01:06:19;97630.63;;;8.67;80.90
75627;BME280;67372;49.404;11.034;2023-02-24T01:08:50;97628.13;;;8.72;80.64
75627;BME280;67372;49.404;11.034;2023-02-24T01:11:20;97618.69;;;8.76;80.43
75627;BME280;67372;49.404;11.034;2023-02-24T01:13:48;97625.19;;;8.80;80.00
75627;BME280;67372;49.404;11.034;2023-02-24T01:16:14;97625.78;;;8.82;80.54
75627;BME280;67372;49.404;11.034;2023-02-24T01:18:41;97630.06;;;8.83;80.81
75627;BME280;67372;49.404;11.034;2023-02-24T01:21:07;97630.66;;;8.85;80.88
75627;BME280;67372;49.404;11.034;2023-02-24T01:23:33;97623.94;;;8.83;80.96
75627;BME280;67372;49.404;11.034;2023-02-24T01:26:01;97619.66;;;8.82;81.04
75627;BME280;67372;49.404;11.034;2023-02-24T01:28:28;97621.72;;;8.80;80.44
75627;BME280;67372;49.404;11.034;2023-02-24T01:31:00;97617.44;;;8.79;81.02
75627;BME280;67372;49.404;11.034;2023-02-24T01:33:27;97617.44;;;8.79;81.23
75627;BME280;67372;49.404;11.034;2023-02-24T01:35:54;97607.63;;;8.79;81.33
75627;BME280;67372;49.404;11.034;2023-02-24T01:38:21;97610.88;;;8.81;80.91
75627;BME280;67372;49.404;11.034;2023-02-24T01:40:57;97600.00;;;8.83;80.54
75627;BME280;67372;49.404;11.034;2023-02-24T01:43:24;97594.31;;;8.79;80.84
75627;BME280;67372;49.404;11.034;2023-02-24T01:45:52;97592.50;;;8.73;81.68
75627;BME280;67372;49.404;11.034;2023-02-24T01:48:19;97592.72;;;8.72;81.20
75627;BME280;67372;49.404;11.034;2023-02-24T01:50:45;97596.88;;;8.68;81.52
75627;BME280;67372;49.404;11.034;2023-02-24T01:53:12;97592.59;;;8.67;81.46
75627;BME280;67372;49.404;11.034;2023-02-24T01:55:47;97600.78;;;8.65;81.87
75627;BME280;67372;49.404;11.034;2023-02-24T01:58:20;97596.72;;;8.63;82.64
75627;BME280;67372;49.404;11.034;2023-02-24T02:00:47;97593.09;;;8.57;82.41
75627;BME280;67372;49.404;11.034;2023-02-24T02:03:22;97596.41;;;8.52;82.33
75627;BME280;67372;49.404;11.034;2023-02-24T02:05:52;97582.94;;;8.47;82.81
75627;BME280;67372;49.404;11.034;2023-02-24T02:08:20;97586.63;;;8.46;82.94
75627;BME280;67372;49.404;11.034;2023-02-24T02:10:47;97580.88;;;8.49;82.64
75627;BME280;67372;49.404;11.034;2023-02-24T02:13:15;97580.88;;;8.49;82.79
75627;BME280;67372;49.404;11.034;2023-02-24T02:15:54;97562.66;;;8.53;82.34
75627;BME280;67372;49.404;11.034;2023-02-24T02:18:30;97557.94;;;8.55;82.09
75627;BME280;67372;49.404;11.034;2023-02-24T02:21:27;97557.13;;;8.54;82.99
75627;BME280;67372;49.404;11.034;2023-02-24T02:26:49;97565.59;;;8.45;83.62
75627;BME280;67372;49.404;11.034;2023-02-24T02:29:36;97566.50;;;8.32;84.89
75627;BME280;67372;49.404;11.034;2023-02-24T02:34:51;97555.09;;;8.25;84.10
75627;BME280;67372;49.404;11.034;2023-02-24T02:37:31;97551.25;;;8.21;84.04
75627;BME280;67372;49.404;11.034;2023-02-24T02:40:08;97553.09;;;8.20;84.08
75627;BME280;67372;49.404;11.034;2023-02-24T02:42:41;97572.94;;;8.18;83.99
75627;BME280;67372;49.404;11.034;2023-02-24T02:45:15;97571.53;;;8.15;84.73
75627;BME280;67372;49.404;11.034;2023-02-24T02:47:53;97575.22;;;8.14;84.58
75627;BME280;67372;49.404;11.034;2023-02-24T02:50:27;97568.88;;;8.15;84.06
75627;BME280;67372;49.404;11.034;2023-02-24T02:52:59;97554.94;;;8.20;83.81
75627;BME280;67372;49.404;11.034;2023-02-24T02:55:49;97547.34;;;8.23;83.92
75627;BME280;67372;49.404;11.034;2023-02-24T02:58:20;97547.13;;;8.25;83.69
75627;BME280;67372;49.404;11.034;2023-02-24T03:00:53;97540.03;;;8.19;84.26
75627;BME280;67372;49.404;11.034;2023-02-24T03:03:21;97540.47;;;8.16;84.19
75627;BME280;67372;49.404;11.034;2023-02-24T03:05:54;97535.59;;;8.13;84.39
75627;BME280;67372;49.404;11.034;2023-02-24T03:08:24;97533.16;;;8.11;84.23
75627;BME280;67372;49.404;11.034;2023-02-24T03:10:52;97536.19;;;8.15;83.77
75627;BME280;67372;49.404;11.034;2023-02-24T03:13:23;97537.97;;;8.21;83.61
75627;BME280;67372;49.404;11.034;2023-02-24T03:15:53;97539.75;;;8.27;83.55
75627;BME280;67372;49.404;11.034;2023-02-24T03:18:31;97544.22;;;8.33;82.90
75627;BME280;67372;49.404;11.034;2023-02-24T03:21:05;97535.44;;;8.32;83.17
75627;BME280;67372;49.404;11.034;2023-02-24T03:23:37;97526.66;;;8.32;83.12
75627;BME280;67372;49.404;11.034;2023-02-24T03:26:09;97530.75;;;8.35;82.85
75627;BME280;67372;49.404;11.034;2023-02-24T03:28:39;97528.44;;;8.38;82.63
75627;BME280;67372;49.404;11.034;2023-02-24T03:31:15;97521.66;;;8.42;82.29
75627;BME280;67372;49.404;11.034;2023-02-24T03:33:58;97515.09;;;8.45;82.71
75627;BME280;67372;49.404;11.034;2023-02-24T03:36:27;97516.94;;;8.44;82.58
75627;BME280;67372;49.404;11.034;2023-02-24T03:38:54;97511.19;;;8.47;82.46
75627;BME280;67372;49.404;11.034;2023-02-24T03:41:21;97517.09;;;8.49;81.81
75627;BME280;67372;49.404;11.034;2023-02-24T03:43:49;97514.19;;;8.51;82.75
75627;BME280;67372;49.404;11.034;2023-02-24T03:46:16;97504.38;;;8.51;81.96
75627;BME280;67372;49.404;11.034;2023-02-24T03:48:50;97509.50;;;8.53;82.41
75627;BME280;67372;49.404;11.034;2023-02-24T03:51:21;97512.16;;;8.53;81.81
75627;BME280;67372;49.404;11.034;2023-02-24T03:54:15;97519.97;;;8.48;82.13
75627;BME280;67372;49.404;11.034;2023-02-24T03:57:14;97510.88;;;8.37;82.30
75627;BME280;67372;49.404;11.034;2023-02-24T04:02:31;97513.56;;;8.30;82.68
75627;BME280;67372;49.404;11.034;2023-02-24T04:05:07;97509.06;;;8.31;82.80
75627;BME280;67372;49.404;11.034;2023-02-24T04:07:43;97520.31;;;8.33;82.51
75627;BME280;67372;49.404;11.034;2023-02-24T04:10:19;97517.44;;;8.35;82.58
75627;BME280;67372;49.404;11.034;2023-02-24T04:12:58;97505.78;;;8.36;82.39
75627;BME280;67372;49.404;11.034;2023-02-24T04:17:55;97519.22;;;8.41;82.31
75627;BME280;67372;49.404;11.034;2023-02-24T04:20:25;97516.56;;;8.41;82.39
75627;BME280;67372;49.404;11.034;2023-02-24T04:22:56;97516.19;;;8.37;82.30
75627;BME280;67372;49.404;11.034;2023-02-24T04:25:24;97514.16;;;8.32;82.42
75627;BME280;67372;49.404;11.034;2023-02-24T04:27:54;97516.06;;;8.25;82.59
75627;BME280;67372;49.404;11.034;2023-02-24T04:30:23;97507.13;;;8.20;82.60
75627;BME280;67372;49.404;11.034;2023-02-24T04:32:50;97514.78;;;8.10;83.75
75627;BME280;67372;49.404;11.034;2023-02-24T04:35:19;97509.72;;;8.01;83.40
75627;BME280;67372;49.404;11.034;2023-02-24T04:37:46;97510.59;;;7.95;82.98
75627;BME280;67372;49.404;11.034;2023-02-24T04:40:15;97507.56;;;7.92;83.13
75627;BME280;67372;49.404;11.034;2023-02-24T04:42:43;97511.84;;;7.93;83.62
75627;BME280;67372;49.404;11.034;2023-02-24T04:45:10;97503.50;;;7.89;83.60
75627;BME280;67372;49.404;11.034;2023-02-24T04:47:36;97495.75;;;7.88;84.03
75627;BME280;67372;49.404;11.034;2023-02-24T04:50:03;97487.56;;;7.89;83.56
75627;BME280;67372;49.404;11.034;2023-02-24T04:52:29;97493.25;;;7.93;83.31
75627;BME280;67372;49.404;11.034;2023-02-24T04:54:56;97495.53;;;7.89;82.53
75627;BME280;67372;49.404;11.034;2023-02-24T04:57:22;97490.06;;;7.84;83.58
75627;BME280;67372;49.404;11.034;2023-02-24T04:59:49;97480.69;;;7.82;83.30
75627;BME280;67372;49.404;11.034;2023-02-24T05:02:15;97473.94;;;7.79;83.11
75627;BME280;67372;49.404;11.034;2023-02-24T05:04:45;97468.66;;;7.79;83.17
75627;BME280;67372;49.404;11.034;2023-02-24T05:07:11;97459.28;;;7.77;83.64
75627;BME280;67372;49.404;11.034;2023-02-24T05:09:38;97468.28;;;7.76;83.45
75627;BME280;67372;49.404;11.034;2023-02-24T05:12:04;97473.78;;;7.74;83.29
75627;BME280;67372;49.404;11.034;2023-02-24T05:14:30;97466.28;;;7.71;83.24
75627;BME280;67372;49.404;11.034;2023-02-24T05:16:57;97470.97;;;7.69;83.25
75627;BME280;67372;49.404;11.034;2023-02-24T05:19:23;97456.91;;;7.68;83.61
75627;BME280;67372;49.404;11.034;2023-02-24T05:21:50;97453.28;;;7.63;83.62
75627;BME280;67372;49.404;11.034;2023-02-24T05:24:16;97458.56;;;7.63;83.99
75627;BME280;67372;49.404;11.034;2023-02-24T05:26:42;97451.28;;;7.58;84.18
75627;BME280;67372;49.404;11.034;2023-02-24T05:29:09;97451.66;;;7.55;84.23
75627;BME280;67372;49.404;11.034;2023-02-24T05:31:36;97446.59;;;7.54;84.05
75627;BME280;67372;49.404;11.034;2023-02-24T05:34:05;97444.75;;;7.54;84.19
75627;BME280;67372;49.404;11.034;2023-02-24T05:36:35;97439.72;;;7.46;83.79
75627;BME280;67372;49.404;11.034;2023-02-24T05:39:02;97436.91;;;7.41;84.77
75627;BME280;67372;49.404;11.034;2023-02-24T05:41:28;97436.91;;;7.41;84.48
75627;BME280;67372;49.404;11.034;2023-02-24T05:43:55;97429.38;;;7.38;84.53
75627;BME280;67372;49.404;11.034;2023-02-24T05:46:22;97424.88;;;7.38;84.23
75627;BME280;67372;49.404;11.034;2023-02-24T05:48:49;97426.50;;;7.39;84.50
75627;BME280;67372;49.404;11.034;2023-02-24T05:51:16;97431.22;;;7.37;84.41
75627;BME280;67372;49.404;11.034;2023-02-24T05:53:43;97423.25;;;7.37;84.29
75627;BME280;67372;49.404;11.034;2023-02-24T05:56:09;97421.41;;;7.38;84.08
75627;BME280;67372;49.404;11.034;2023-02-24T05:58:36;97412.03;;;7.35;84.40
75627;BME280;67372;49.404;11.034;2023-02-24T06:01:09;97417.34;;;7.35;84.20
75627;BME280;67372;49.404;11.034;2023-02-24T06:03:35;97417.34;;;7.35;84.74
75627;BME280;67372;49.404;11.034;2023-02-24T06:06:02;97416.78;;;7.27;85.49
75627;BME280;67372;49.404;11.034;2023-02-24T06:08:28;97406.38;;;7.25;85.02
75627;BME280;67372;49.404;11.034;2023-02-24T06:10:55;97409.84;;;7.26;84.98
75627;BME280;67372;49.404;11.034;2023-02-24T06:13:21;97406.16;;;7.27;85.02
75627;BME280;67372;49.404;11.034;2023-02-24T06:15:54;97416.34;;;7.30;84.56
75627;BME280;67372;49.404;11.034;2023-02-24T06:18:20;97404.31;;;7.34;84.74
75627;BME280;67372;49.404;11.034;2023-02-24T06:20:46;97405.28;;;7.39;84.27
75627;BME280;67372;49.404;11.034;2023-02-24T06:23:13;97411.78;;;7.44;84.47
75627;BME280;67372;49.404;11.034;2023-02-24T06:25:39;97411.50;;;7.52;84.14
75627;BME280;67372;49.404;11.034;2023-02-24T06:28:05;97405.34;;;7.58;83.86
75627;BME280;67372;49.404;11.034;2023-02-24T06:30:32;97401.22;;;7.62;83.91
75627;BME280;67372;49.404;11.034;2023-02-24T06:32:58;97402.19;;;7.67;83.54
75627;BME280;67372;49.404;11.034;2023-02-24T06:35:25;97402.34;;;7.73;83.20
75627;BME280;67372;49.404;11.034;2023-02-24T06:37:51;97403.31;;;7.78;83.13
75627;BME280;67372;49.404;11.034;2023-02-24T06:40:17;97406.72;;;7.85;82.98
75627;BME280;67372;49.404;11.034;2023-02-24T06:42:46;97407.09;;;7.89;83.15
75627;BME280;67372;49.404;11.034;2023-02-24T06:45:14;97399.50;;;7.92;83.23
75627;BME280;67372;49.404;11.034;2023-02-24T06:47:43;97396.03;;;7.92;83.87
75627;BME280;67372;49.404;11.034;2023-02-24T06:50:10;97399.88;;;7.96;83.44
75627;BME280;67372;49.404;11.034;2023-02-24T06:52:37;97392.94;;;7.95;83.50
75627;BME280;67372;49.404;11.034;2023-02-24T06:55:03;97398.63;;;7.98;83.33
75627;BME280;67372;49.404;11.034;2023-02-24T06:57:31;97400.41;;;8.05;83.43
75627;BME280;67372;49.404;11.034;2023-02-24T06:59:57;97401.16;;;8.12;82.90
75627;BME280;67372;49.404;11.034;2023-02-24T07:02:23;97401.09;;;8.18;83.02
75627;BME280;67372;49.404;11.034;2023-02-24T07:04:50;97392.22;;;8.24;82.93
75627;BME280;67372;49.404;11.034;2023-02-24T07:07:16;97401.16;;;8.30;82.70
75627;BME280;67372;49.404;11.034;2023-02-24T07:09:43;97389.69;;;8.36;81.99
75627;BME280;67372;49.404;11.034;2023-02-24T07:12:09;97400.00;;;8.44;81.87
75627;BME280;67372;49.404;11.034;2023-02-24T07:14:35;97406.25;;;8.50;81.74
75627;BME280;67372;49.404;11.034;2023-02-24T07:17:02;97394.09;;;8.60;81.54
75627;BME280;67372;49.404;11.034;2023-02-24T07:19:29;97394.59;;;8.69;81.57
75627;BME280;67372;49.404;11.034;2023-02-24T07:22:01;97400.84;;;8.75;80.58
75627;BME280;67372;49.404;11.034;2023-02-24T07:24:35;97392.06;;;8.74;80.09
75627;BME280;67372;49.404;11.034;2023-02-24T07:27:03;97399.00;;;8.75;80.90
75627;BME280;67372;49.404;11.034;2023-02-24T07:29:31;97394.53;;;8.76;80.85
75627;BME280;67372;49.404;11.034;2023-02-24T07:32:01;97398.13;;;8.81;80.51
75627;BME280;67372;49.404;11.034;2023-02-24T07:34:29;97380.69;;;8.85;80.47
75627;BME280;67372;49.404;11.034;2023-02-24T07:36:56;97383.69;;;8.89;80.24
75627;BME280;67372;49.404;11.034;2023-02-24T07:39:23;97382.44;;;8.91;80.39
75627;BME280;67372;49.404;11.034;2023-02-24T07:41:52;97374.34;;;8.98;79.75
75627;BME280;67372;49.404;11.034;2023-02-24T07:44:20;97377.22;;;8.97;79.83
75627;BME280;67372;49.404;11.034;2023-02-24T07:46:46;97360.91;;;8.93;79.70
75627;BME280;67372;49.404;11.034;2023-02-24T07:49:18;97370.88;;;8.98;80.02
75627;BME280;67372;49.404;11.034;2023-02-24T07:51:46;97361.66;;;9.00;80.09
75627;BME280;67372;49.404;11.034;2023-02-24T07:54:13;97359.94;;;9.06;79.77
75627;BME280;67372;49.404;11.034;2023-02-24T07:56:39;97365.72;;;9.14;79.90
75627;BME280;67372;49.404;11.034;2023-02-24T07:59:05;97359.72;;;9.19;79.51
75627;BME280;67372;49.404;11.034;2023-02-24T08:01:34;97359.72;;;9.19;79.36
75627;BME280;67372;49.404;11.034;2023-02-24T08:04:00;97363.19;;;9.19;79.04
75627;BME280;67372;49.404;11.034;2023-02-24T08:06:35;97352.78;;;9.18;79.35
75627;BME280;67372;49.404;11.034;2023-02-24T08:09:13;97354.16;;;9.20;79.53
75627;BME280;67372;49.404;11.034;2023-02-24T08:11:42;97346.19;;;9.20;79.11
75627;BME280;67372;49.404;11.034;2023-02-24T08:14:09;97349.75;;;9.14;79.79
75627;BME280;67372;49.404;11.034;2023-02-24T08:16:36;97347.09;;;9.14;79.22
75627;BME280;67372;49.404;11.034;2023-02-24T08:19:02;97352.19;;;9.16;78.88
75627;BME280;67372;49.404;11.034;2023-02-24T08:21:28;97354.41;;;9.19;79.06
75627;BME280;67372;49.404;11.034;2023-02-24T08:23:55;97352.53;;;9.19;79.10
75627;BME280;67372;49.404;11.034;2023-02-24T08:26:21;97340.63;;;9.22;79.11
75627;BME280;67372;49.404;11.034;2023-02-24T08:28:47;97342.72;;;9.20;78.46
75627;BME280;67372;49.404;11.034;2023-02-24T08:31:14;97338.19;;;9.20;79.25
75627;BME280;67372;49.404;11.034;2023-02-24T08:33:40;97338.34;;;9.26;78.40
75627;BME280;67372;49.404;11.034;2023-02-24T08:36:06;97336.25;;;9.28;78.23
75627;BME280;67372;49.404;11.034;2023-02-24T08:38:34;97322.16;;;9.27;78.61
75627;BME280;67372;49.404;11.034;2023-02-24T08:41:01;97323.66;;;9.35;78.38
75627;BME280;67372;49.404;11.034;2023-02-24T08:43:29;97333.25;;;9.36;78.06
75627;BME280;67372;49.404;11.034;2023-02-24T08:48:27;97318.44;;;9.40;77.32
75627;BME280;67372;49.404;11.034;2023-02-24T08:50:55;97324.47;;;9.35;77.30
75627;BME280;67372;49.404;11.034;2023-02-24T08:53:23;97325.84;;;9.26;77.23
75627;BME280;67372;49.404;11.034;2023-02-24T08:55:49;97311.25;;;9.17;77.21
75627;BME280;67372;49.404;11.034;2023-02-24T08:58:17;97315.97;;;9.15;77.60
75627;BME280;67372;49.404;11.034;2023-02-24T09:00:46;97314.94;;;9.16;78.46
75627;BME280;67372;49.404;11.034;2023-02-24T09:03:17;97313.13;;;9.28;77.14
75627;BME280;67372;49.404;11.034;2023-02-24T09:05:44;97309.50;;;9.22;77.43
75627;BME280;67372;49.404;11.034;2023-02-24T09:08:10;97309.75;;;9.21;77.47
75627;BME280;67372;49.404;11.034;2023-02-24T09:10:37;97312.53;;;9.26;77.00
75627;BME280;67372;49.404;11.034;2023-02-24T09:13:05;97310.56;;;9.21;76.62
75627;BME280;67372;49.404;11.034;2023-02-24T09:15:31;97308.59;;;9.17;76.88
75627;BME280;67372;49.404;11.034;2023-02-24T09:17:57;97313.22;;;9.21;76.31
75627;BME280;67372;49.404;11.034;2023-02-24T09:20:24;97310.31;;;9.11;75.70
75627;BME280;67372;49.404;11.034;2023-02-24T09:22:51;97305.78;;;9.00;76.67
75627;BME280;67372;49.404;11.034;2023-02-24T09:25:18;97301.00;;;8.90;77.31
75627;BME280;67372;49.404;11.034;2023-02-24T09:27:46;97303.69;;;8.90;77.24
75627;BME280;67372;49.404;11.034;2023-02-24T09:30:13;97301.00;;;8.90;77.27
75627;BME280;67372;49.404;11.034;2023-02-24T09:32:39;97298.00;;;8.99;77.19
75627;BME280;67372;49.404;11.034;2023-02-24T09:35:06;97290.72;;;8.94;77.90
75627;BME280;67372;49.404;11.034;2023-02-24T09:37:32;97295.16;;;9.12;77.68
75627;BME280;67372;49.404;11.034;2023-02-24T09:39:59;97286.16;;;9.25;78.32
75627;BME280;67372;49.404;11.034;2023-02-24T09:42:28;97281.66;;;9.48;76.18
75627;BME280;67372;49.404;11.034;2023-02-24T09:45:00;97279.44;;;9.69;74.69
75627;BME280;67372;49.404;11.034;2023-02-24T09:52:33;97279.28;;;9.87;74.22
75627;BME280;67372;49.404;11.034;2023-02-24T09:54:59;97271.63;;;10.02;74.26
75627;BME280;67372;49.404;11.034;2023-02-24T09:57:26;97269.06;;;10.07;74.36
75627;BME280;67372;49.404;11.034;2023-02-24T09:59:57;97261.16;;;10.24;74.22
75627;BME280;67372;49.404;11.034;2023-02-24T10:02:39;97256.06;;;10.51;71.55
75627;BME280;67372;49.404;11.034;2023-02-24T10:05:26;97258.78;;;10.39;70.82
75627;BME280;67372;49.404;11.034;2023-02-24T10:07:56;97241.72;;;10.40;70.71
75627;BME280;67372;49.404;11.034;2023-02-24T10:10:26;97243.22;;;10.48;71.25
75627;BME280;67372;49.404;11.034;2023-02-24T10:13:06;97239.75;;;10.48;71.20
75627;BME280;67372;49.404;11.034;2023-02-24T10:15:34;97231.97;;;10.46;70.74
75627;BME280;67372;49.404;11.034;2023-02-24T10:18:20;97230.78;;;10.54;70.89
75627;BME280;67372;49.404;11.034;2023-02-24T10:20:48;97221.66;;;10.50;69.69
75627;BME280;67372;49.404;11.034;2023-02-24T10:23:24;97202.19;;;10.49;70.29
75627;BME280;67372;49.404;11.034;2023-02-24T10:25:59;97194.28;;;10.26;70.59
75627;BME280;67372;49.404;11.034;2023-02-24T10:28:37;97189.25;;;10.41;69.51
75627;BME280;67372;49.404;11.034;2023-02-24T10:31:20;97190.50;;;10.38;69.38
75627;BME280;67372;49.404;11.034;2023-02-24T10:33:53;97200.72;;;10.41;69.83
75627;BME280;67372;49.404;11.034;2023-02-24T10:36:22;97205.88;;;10.48;69.11
75627;BME280;67372;49.404;11.034;2023-02-24T10:38:49;97206.22;;;10.52;70.50
75627;BME280;67372;49.404;11.034;2023-02-24T10:41:15;97198.13;;;10.63;68.41
75627;BME280;67372;49.404;11.034;2023-02-24T10:43:55;97205.25;;;10.58;69.38
75627;BME280;67372;49.404;11.034;2023-02-24T10:46:28;97192.81;;;10.47;71.44
75627;BME280;67372;49.404;11.034;2023-02-24T10:49:09;97192.16;;;10.56;70.35
75627;BME280;67372;49.404;11.034;2023-02-24T10:51:38;97189.25;;;10.58;70.79
75627;BME280;67372;49.404;11.034;2023-02-24T10:54:19;97185.97;;;10.67;69.98
75627;BME280;67372;49.404;11.034;2023-02-24T10:56:49;97177.78;;;10.74;68.66
75627;BME280;67372;49.404;11.034;2023-02-24T10:59:17;97176.41;;;10.71;68.90
75627;BME280;67372;49.404;11.034;2023-02-24T11:01:44;97167.69;;;10.76;69.00
75627;BME280;67372;49.404;11.034;2023-02-24T11:04:16;97160.56;;;10.82;68.31
75627;BME280;67372;49.404;11.034;2023-02-24T11:06:42;97148.81;;;10.99;67.61
75627;BME280;67372;49.404;11.034;2023-02-24T11:11:38;97143.25;;;11.01;68.56
75627;BME280;67372;49.404;11.034;2023-02-24T11:14:15;97130.94;;;11.00;66.60
75627;BME280;67372;49.404;11.034;2023-02-24T11:16:45;97133.88;;;10.98;66.69
75627;BME280;67372;49.404;11.034;2023-02-24T11:19:14;97119.03;;;11.07;67.85
75627;BME280;67372;49.404;11.034;2023-02-24T11:21:40;97120.69;;;11.30;67.87
75627;BME280;67372;49.404;11.034;2023-02-24T11:24:12;97109.44;;;11.50;65.31
75627;BME280;67372;49.404;11.034;2023-02-24T11:26:41;97108.03;;;11.43;67.23
75627;BME280;67372;49.404;11.034;2023-02-24T11:29:59;97106.78;;;11.50;66.96
75627;BME280;67372;49.404;11.034;2023-02-24T11:35:19;97100.53;;;11.40;66.30
75627;BME280;67372;49.404;11.034;2023-02-24T11:41:17;97089.28;;;10.77;66.69
75627;BME280;67372;49.404;11.034;2023-02-24T11:44:11;97093.59;;;10.44;67.97
75627;BME280;67372;49.404;11.034;2023-02-24T11:46:49;97085.59;;;10.28;67.86
75627;BME280;67372;49.404;11.034;2023-02-24T11:49:28;97071.06;;;10.07;68.65
75627;BME280;67372;49.404;11.034;2023-02-24T11:51:55;97071.03;;;9.90;68.19
75627;BME280;67372;49.404;11.034;2023-02-24T11:54:24;97057.41;;;9.87;68.03
75627;BME280;67372;49.404;11.034;2023-02-24T11:56:54;97059.16;;;9.81;67.87
75627;BME280;67372;49.404;11.034;2023-02-24T11:59:30;97056.56;;;9.69;68.95
75627;BME280;67372;49.404;11.034;2023-02-24T12:02:15;97051.38;;;9.63;69.03
75627;BME280;67372;49.404;11.034;2023-02-24T12:07:33;97038.78;;;9.58;69.55
75627;BME280;67372;49.404;11.034;2023-02-24T12:10:05;97035.38;;;9.74;68.68
75627;BME280;67372;49.404;11.034;2023-02-24T12:12:59;97026.88;;;9.77;67.73
75627;BME280;67372;49.404;11.034;2023-02-24T12:15:30;97025.94;;;9.83;67.74
75627;BME280;67372;49.404;11.034;2023-02-24T12:18:05;97024.63;;;9.86;68.11
75627;BME280;67372;49.404;11.034;2023-02-24T12:20:42;97022.22;;;9.84;67.84
75627;BME280;67372;49.404;11.034;2023-02-24T12:23:20;97014.31;;;9.90;67.75
75627;BME280;67372;49.404;11.034;2023-02-24T12:42:59;96978.81;;;10.56;66.35
75627;BME280;67372;49.404;11.034;2023-02-24T12:47:56;96969.78;;;10.79;65.81
75627;BME280;67372;49.404;11.034;2023-02-24T12:54:12;96956.25;;;11.07;65.08
75627;BME280;67372;49.404;11.034;2023-02-24T12:56:51;96960.84;;;11.12;64.73
75627;BME280;67372;49.404;11.034;2023-02-24T12:59:25;96957.81;;;11.03;63.80
75627;BME280;67372;49.404;11.034;2023-02-24T13:02:15;96948.44;;;11.01;64.03
75627;BME280;67372;49.404;11.034;2023-02-24T13:05:08;96947.03;;;10.93;62.93
75627;BME280;67372;49.404;11.034;2023-02-24T13:13:10;96936.66;;;10.75;64.58
75627;BME280;67372;49.404;11.034;2023-02-24T13:15:49;96926.19;;;10.90;64.62
75627;BME280;67372;49.404;11.034;2023-02-24T13:18:24;96923.56;;;10.95;63.13
75627;BME280;67372;49.404;11.034;2023-02-24T13:21:02;96919.53;;;10.93;63.14
75627;BME280;67372;49.404;11.034;2023-02-24T13:23:29;96910.22;;;10.95;62.19
75627;BME280;67372;49.404;11.034;2023-02-24T13:25:56;96900.63;;;10.94;63.19
75627;BME280;67372;49.404;11.034;2023-02-24T13:28:28;96895.97;;;10.85;63.40
75627;BME280;67372;49.404;11.034;2023-02-24T13:31:00;96881.97;;;10.99;62.53
75627;BME280;67372;49.404;11.034;2023-02-24T13:33:31;96871.31;;;10.99;63.67
75627;BME280;67372;49.404;11.034;2023-02-24T13:36:16;96874.28;;;11.03;63.48
75627;BME280;67372;49.404;11.034;2023-02-24T13:38:44;96861.94;;;11.24;62.21
75627;BME280;67372;49.404;11.034;2023-02-24T13:43:58;96854.16;;;11.17;61.96
75627;BME280;67372;49.404;11.034;2023-02-24T13:46:28;96856.56;;;11.19;62.92
75627;BME280;67372;49.404;11.034;2023-02-24T13:49:54;96850.03;;;11.36;62.38
75627;BME280;67372;49.404;11.034;2023-02-24T13:51:56;96839.69;;;11.45;62.10
75627;BME280;67372;49.404;11.034;2023-02-24T13:54:33;96834.84;;;11.37;60.02
75627;BME280;67372;49.404;11.034;2023-02-24T13:57:53;96833.06;;;11.53;59.74
75627;BME280;67372;49.404;11.034;2023-02-24T14:03:20;96826.78;;;11.69;59.62
75627;BME280;67372;49.404;11.034;2023-02-24T14:05:50;96816.31;;;11.62;58.20
75627;BME280;67372;49.404;11.034;2023-02-24T14:08:23;96829.53;;;11.79;57.63
75627;BME280;67372;49.404;11.034;2023-02-24T14:10:54;96804.59;;;11.68;57.76
75627;BME280;67372;49.404;11.034;2023-02-24T14:13:24;96807.03;;;11.75;57.68
75627;BME280;67372;49.404;11.034;2023-02-24T14:15:51;96812.09;;;11.72;58.07
75627;BME280;67372;49.404;11.034;2023-02-24T14:18:25;96811.91;;;11.41;58.77
75627;BME280;67372;49.404;11.034;2023-02-24T14:20:54;96810.75;;;11.00;59.27